sensor_id;sensor_type;location;lat;lon;timestamp;temperature;humidity
1678;DHT22;6034;46.864;15.216;2023-02-15T06:02:45;2.50;99.90
1678;DHT22;6034;46.864;15.216;2023-02-15T06:05:12;2.50;99.90
1678;DHT22;6034;46.864;15.216;2023-02-15T06:07:42;2.50;99.90
1678;DHT22;6034;46.864;15.216;2023-02-15T06:10:10;2.40;99.90
1678;DHT22;6034;46.864;15.216;2023-02-15T06:12:37;2.40;99.90
1678;DHT22;6034;46.864;15.216;2023-02-15T06:15:05;2.40;99.90
1678;DHT22;6034;46.864;15.216;2023-02-15T06:17:32;2.20;99.90
1678;DHT22;6034;46.864;15.216;2023-02-15T06:20:01;2.30;99.90
1678;DHT22;6034;46.864;15.216;2023-02-15T06:22:28;2.10;99.90
1678;DHT22;6034;46.864;15.216;2023-02-15T06:24:55;2.20;99.90
1678;DHT22;6034;46.864;15.216;2023-02-15T06:27:22;2.10;99.90
1678;DHT22;6034;46.864;15.216;2023-02-15T06:29:50;2.20;99.90
1678;DHT22;6034;46.864;15.216;2023-02-15T06:32:18;2.20;99.90
1678;DHT22;6034;46.864;15.216;2023-02-15T06:34:45;2.10;99.90
1678;DHT22;6034;46.864;15.216;2023-02-15T06:37:13;2.20;99.90
1678;DHT22;6034;46.864;15.216;2023-02-15T06:39:40;2.20;99.90
1678;DHT22;6034;46.864;15.216;2023-02-15T06:42:08;2.20;99.90
1678;DHT22;6034;46.864;15.216;2023-02-15T06:44:35;2.10;99.90
1678;DHT22;6034;46.864;15.216;2023-02-15T06:47:02;2.20;99.90
1678;DHT22;6034;46.864;15.216;2023-02-15T06:49:30;2.20;99.90
1678;DHT22;6034;46.864;15.216;2023-02-15T06:51:57;2.20;99.90
1678;DHT22;6034;46.864;15.216;2023-02-15T06:54:26;2.30;99.90
1678;DHT22;6034;46.864;15.216;2023-02-15T06:56:53;2.30;99.90
1678;DHT22;6034;46.864;15.216;2023-02-15T06:59:21;2.20;99.90
1678;DHT22;6034;46.864;15.216;2023-02-15T07:01:48;2.30;99.90
1678;DHT22;6034;46.864;15.216;2023-02-15T07:04:15;2.20;99.90
1678;DHT22;6034;46.864;15.216;2023-02-15T07:06:43;2.30;99.90
1678;DHT22;6034;46.864;15.216;2023-02-15T07:09:11;2.30;99.90
1678;DHT22;6034;46.864;15.216;2023-02-15T07:11:40;2.30;99.90
1678;DHT22;6034;46.864;15.216;2023-02-15T07:14:24;2.00;99.90
1678;DHT22;6034;46.864;15.216;2023-02-15T07:16:52;2.10;99.90
1678;DHT22;6034;46.864;15.216;2023-02-15T07:19:19;2.10;99.90
1678;DHT22;6034;46.864;15.216;2023-02-15T07:21:46;2.20;99.90
1678;DHT22;6034;46.864;15.216;2023-02-15T07:24:14;2.20;99.90
1678;DHT22;6034;46.864;15.216;2023-02-15T07:26:43;2.20;99.90
1678;DHT22;6034;46.864;15.216;2023-02-15T07:29:10;2.10;99.90
1678;DHT22;6034;46.864;15.216;2023-02-15T07:31:37;2.20;99.90
1678;DHT22;6034;46.864;15.216;2023-02-15T07:34:06;2.20;99.90
1678;DHT22;6034;46.864;15.216;2023-02-15T07:36:33;2.30;99.90
1678;DHT22;6034;46.864;15.216;2023-02-15T07:39:00;2.30;99.90
1678;DHT22;6034;46.864;15.216;2023-02-15T07:41:28;2.30;99.90
1678;DHT22;6034;46.864;15.216;2023-02-15T07:43:57;2.30;99.90
1678;DHT22;6034;46.864;15.216;2023-02-15T07:46:24;2.30;99.90
1678;DHT22;6034;46.864;15.216;2023-02-15T07:48:51;2.30;99.90
1678;DHT22;6034;46.864;15.216;2023-02-15T07:51:18;2.30;99.90
1678;DHT22;6034;46.864;15.216;2023-02-15T07:53:46;2.40;99.90
1678;DHT22;6034;46.864;15.216;2023-02-15T07:56:14;2.30;99.90
1678;DHT22;6034;46.864;15.216;2023-02-15T07:58:41;2.30;99.90
1678;DHT22;6034;46.864;15.216;2023-02-15T08:01:19;2.40;99.90
1678;DHT22;6034;46.864;15.216;2023-02-15T08:03:46;2.30;99.90
1678;DHT22;6034;46.864;15.216;2023-02-15T08:06:13;2.40;99.90
1678;DHT22;6034;46.864;15.216;2023-02-15T08:08:40;2.30;99.90
1678;DHT22;6034;46.864;15.216;2023-02-15T08:11:14;2.40;99.90
1678;DHT22;6034;46.864;15.216;2023-02-15T08:13:59;2.40;99.90
1678;DHT22;6034;46.864;15.216;2023-02-15T08:16:30;2.50;99.90
1678;DHT22;6034;46.864;15.216;2023-02-15T08:18:58;2.50;99.90
1678;DHT22;6034;46.864;15.216;2023-02-15T08:21:27;2.60;99.90
1678;DHT22;6034;46.864;15.216;2023-02-15T08:23:54;2.60;99.90
1678;DHT22;6034;46.864;15.216;2023-02-15T08:26:21;2.60;99.90
1678;DHT22;6034;46.864;15.216;2023-02-15T08:28:50;2.60;99.90
1678;DHT22;6034;46.864;15.216;2023-02-15T08:31:17;2.70;99.90
1678;DHT22;6034;46.864;15.216;2023-02-15T08:33:46;2.60;99.90
1678;DHT22;6034;46.864;15.216;2023-02-15T08:36:14;2.70;99.90
1678;DHT22;6034;46.864;15.216;2023-02-15T08:38:42;2.70;99.90
1678;DHT22;6034;46.864;15.216;2023-02-15T08:41:10;2.70;99.90
1678;DHT22;6034;46.864;15.216;2023-02-15T08:43:37;2.70;99.90
1678;DHT22;6034;46.864;15.216;2023-02-15T08:46:04;2.50;99.90
1678;DHT22;6034;46.864;15.216;2023-02-15T08:48:32;2.50;99.90
1678;DHT22;6034;46.864;15.216;2023-02-15T08:51:03;2.50;99.90
1678;DHT22;6034;46.864;15.216;2023-02-15T08:53:30;2.60;99.90
1678;DHT22;6034;46.864;15.216;2023-02-15T08:55:57;2.60;99.90
1678;DHT22;6034;46.864;15.216;2023-02-15T08:58:25;2.60;99.90
1678;DHT22;6034;46.864;15.216;2023-02-15T09:00:52;2.50;99.90
1678;DHT22;6034;46.864;15.216;2023-02-15T09:03:19;2.40;99.90
1678;DHT22;6034;46.864;15.216;2023-02-15T09:05:46;2.20;99.90
1678;DHT22;6034;46.864;15.216;2023-02-15T09:08:15;2.30;99.90
1678;DHT22;6034;46.864;15.216;2023-02-15T09:10:42;2.30;99.90
1678;DHT22;6034;46.864;15.216;2023-02-15T09:13:10;2.30;99.90
1678;DHT22;6034;46.864;15.216;2023-02-15T09:15:37;2.30;99.90
1678;DHT22;6034;46.864;15.216;2023-02-15T09:18:04;2.40;99.90
1678;DHT22;6034;46.864;15.216;2023-02-15T09:20:34;2.40;99.90
1678;DHT22;6034;46.864;15.216;2023-02-15T09:23:02;2.40;99.90
1678;DHT22;6034;46.864;15.216;2023-02-15T09:25:31;2.60;99.90
1678;DHT22;6034;46.864;15.216;2023-02-15T09:28:00;2.70;99.90
1678;DHT22;6034;46.864;15.216;2023-02-15T09:30:28;2.80;99.90
1678;DHT22;6034;46.864;15.216;2023-02-15T09:32:55;2.80;99.90
1678;DHT22;6034;46.864;15.216;2023-02-15T09:35:22;2.90;99.90
1678;DHT22;6034;46.864;15.216;2023-02-15T09:37:49;2.90;99.90
1678;DHT22;6034;46.864;15.216;2023-02-15T09:40:18;2.80;99.90
1678;DHT22;6034;46.864;15.216;2023-02-15T09:43:05;2.80;99.90
1678;DHT22;6034;46.864;15.216;2023-02-15T09:45:59;2.40;99.90
1678;DHT22;6034;46.864;15.216;2023-02-15T09:48:40;2.10;99.90
1678;DHT22;6034;46.864;15.216;2023-02-15T09:51:37;2.50;99.90
1678;DHT22;6034;46.864;15.216;2023-02-15T09:54:36;2.40;99.90
1678;DHT22;6034;46.864;15.216;2023-02-15T09:57:10;2.20;99.90
1678;DHT22;6034;46.864;15.216;2023-02-15T09:59:49;2.40;99.90
1678;DHT22;6034;46.864;15.216;2023-02-15T10:02:27;2.50;99.90
1678;DHT22;6034;46.864;15.216;2023-02-15T10:05:07;2.80;99.90
1678;DHT22;6034;46.864;15.216;2023-02-15T10:07:53;3.00;99.90
1678;DHT22;6034;46.864;15.216;2023-02-15T10:10:34;2.90;99.90
1678;DHT22;6034;46.864;15.216;2023-02-15T10:13:21;2.40;99.90
1678;DHT22;6034;46.864;15.216;2023-02-15T10:16:06;2.40;99.90
1678;DHT22;6034;46.864;15.216;2023-02-15T10:18:53;2.60;99.90
1678;DHT22;6034;46.864;15.216;2023-02-15T10:21:33;2.50;99.90
1678;DHT22;6034;46.864;15.216;2023-02-15T10:24:38;2.80;99.90
1678;DHT22;6034;46.864;15.216;2023-02-15T10:27:11;3.10;99.90
1678;DHT22;6034;46.864;15.216;2023-02-15T10:29:45;3.30;99.90
1678;DHT22;6034;46.864;15.216;2023-02-15T10:32:23;3.40;99.90
1678;DHT22;6034;46.864;15.216;2023-02-15T10:34:52;3.60;99.90
1678;DHT22;6034;46.864;15.216;2023-02-15T10:37:36;3.60;99.90
1678;DHT22;6034;46.864;15.216;2023-02-15T10:40:12;3.70;99.90
1678;DHT22;6034;46.864;15.216;2023-02-15T10:45:40;3.90;99.90
1678;DHT22;6034;46.864;15.216;2023-02-15T10:51:14;3.90;99.90
1678;DHT22;6034;46.864;15.216;2023-02-15T10:54:01;4.00;99.90
1678;DHT22;6034;46.864;15.216;2023-02-15T10:56:38;3.90;99.90
1678;DHT22;6034;46.864;15.216;2023-02-15T10:59:19;3.80;99.90
1678;DHT22;6034;46.864;15.216;2023-02-15T11:01:52;3.90;99.90
1678;DHT22;6034;46.864;15.216;2023-02-15T11:04:38;4.10;99.90
1678;DHT22;6034;46.864;15.216;2023-02-15T11:07:12;4.20;99.90
1678;DHT22;6034;46.864;15.216;2023-02-15T11:09:44;4.20;99.90
1678;DHT22;6034;46.864;15.216;2023-02-15T11:12:16;4.20;99.90
1678;DHT22;6034;46.864;15.216;2023-02-15T11:14:48;4.20;99.90
1678;DHT22;6034;46.864;15.216;2023-02-15T11:17:21;4.40;99.90
1678;DHT22;6034;46.864;15.216;2023-02-15T11:19:57;4.40;99.90
1678;DHT22;6034;46.864;15.216;2023-02-15T11:22:27;4.40;99.90
1678;DHT22;6034;46.864;15.216;2023-02-15T11:24:58;4.60;99.90
1678;DHT22;6034;46.864;15.216;2023-02-15T11:27:28;4.50;99.90
1678;DHT22;6034;46.864;15.216;2023-02-15T11:30:00;4.40;99.90
1678;DHT22;6034;46.864;15.216;2023-02-15T11:32:31;4.70;99.90
1678;DHT22;6034;46.864;15.216;2023-02-15T11:35:03;4.40;99.90
1678;DHT22;6034;46.864;15.216;2023-02-15T11:37:38;4.60;99.90
1678;DHT22;6034;46.864;15.216;2023-02-15T11:40:18;4.50;99.90
1678;DHT22;6034;46.864;15.216;2023-02-15T11:42:48;4.90;99.90
1678;DHT22;6034;46.864;15.216;2023-02-15T11:45:22;4.80;99.90
1678;DHT22;6034;46.864;15.216;2023-02-15T11:47:52;4.50;99.90
1678;DHT22;6034;46.864;15.216;2023-02-15T11:50:24;4.80;99.90
1678;DHT22;6034;46.864;15.216;2023-02-15T11:52:52;4.80;99.90
1678;DHT22;6034;46.864;15.216;2023-02-15T11:55:23;4.80;99.90
1678;DHT22;6034;46.864;15.216;2023-02-15T11:57:54;4.90;99.90
1678;DHT22;6034;46.864;15.216;2023-02-15T12:00:31;4.80;99.90
1678;DHT22;6034;46.864;15.216;2023-02-15T12:03:07;4.90;99.90
1678;DHT22;6034;46.864;15.216;2023-02-15T12:05:40;5.00;99.90
1678;DHT22;6034;46.864;15.216;2023-02-15T12:08:20;5.20;99.90
1678;DHT22;6034;46.864;15.216;2023-02-15T12:10:57;5.20;99.90
1678;DHT22;6034;46.864;15.216;2023-02-15T12:13:25;5.30;99.90
1678;DHT22;6034;46.864;15.216;2023-02-15T12:15:55;5.40;99.90
1678;DHT22;6034;46.864;15.216;2023-02-15T12:18:36;5.40;99.90
1678;DHT22;6034;46.864;15.216;2023-02-15T12:21:09;5.30;99.90
1678;DHT22;6034;46.864;15.216;2023-02-15T12:23:43;4.80;99.90
1678;DHT22;6034;46.864;15.216;2023-02-15T12:26:13;5.10;99.90
1678;DHT22;6034;46.864;15.216;2023-02-15T12:28:43;5.10;99.90
1678;DHT22;6034;46.864;15.216;2023-02-15T12:31:21;5.30;99.90
1678;DHT22;6034;46.864;15.216;2023-02-15T12:33:51;5.30;99.90
1678;DHT22;6034;46.864;15.216;2023-02-15T12:36:22;5.40;99.90
1678;DHT22;6034;46.864;15.216;2023-02-15T12:39:15;5.40;99.90
1678;DHT22;6034;46.864;15.216;2023-02-15T12:41:48;5.50;99.90
1678;DHT22;6034;46.864;15.216;2023-02-15T12:44:24;5.60;99.90
1678;DHT22;6034;46.864;15.216;2023-02-15T12:46:57;5.60;99.90
1678;DHT22;6034;46.864;15.216;2023-02-15T12:49:25;5.70;99.90
1678;DHT22;6034;46.864;15.216;2023-02-15T12:51:56;5.70;99.90
1678;DHT22;6034;46.864;15.216;2023-02-15T12:54:39;5.60;99.90
1678;DHT22;6034;46.864;15.216;2023-02-15T12:57:22;5.60;99.90
1678;DHT22;6034;46.864;15.216;2023-02-15T12:59:55;5.70;99.90
1678;DHT22;6034;46.864;15.216;2023-02-15T13:02:40;5.80;99.90
1678;DHT22;6034;46.864;15.216;2023-02-15T13:05:17;5.80;99.90
1678;DHT22;6034;46.864;15.216;2023-02-15T13:07:50;5.90;99.90
1678;DHT22;6034;46.864;15.216;2023-02-15T13:10:24;5.90;99.90
1678;DHT22;6034;46.864;15.216;2023-02-15T13:12:52;5.90;99.90
1678;DHT22;6034;46.864;15.216;2023-02-15T13:15:26;5.80;99.90
1678;DHT22;6034;46.864;15.216;2023-02-15T13:17:55;5.90;99.90
1678;DHT22;6034;46.864;15.216;2023-02-15T13:20:23;5.90;99.90
1678;DHT22;6034;46.864;15.216;2023-02-15T13:22:58;6.00;99.90
1678;DHT22;6034;46.864;15.216;2023-02-15T13:25:28;5.50;99.90
1678;DHT22;6034;46.864;15.216;2023-02-15T13:28:00;5.40;99.90
1678;DHT22;6034;46.864;15.216;2023-02-15T13:30:31;5.60;99.90
1678;DHT22;6034;46.864;15.216;2023-02-15T13:33:03;5.70;99.90
1678;DHT22;6034;46.864;15.216;2023-02-15T13:35:37;5.60;99.90
1678;DHT22;6034;46.864;15.216;2023-02-15T13:38:21;5.50;99.90
1678;DHT22;6034;46.864;15.216;2023-02-15T13:40:53;5.60;99.90
1678;DHT22;6034;46.864;15.216;2023-02-15T13:43:33;5.80;99.90
1678;DHT22;6034;46.864;15.216;2023-02-15T13:46:14;5.90;99.90
1678;DHT22;6034;46.864;15.216;2023-02-15T13:48:49;6.00;99.90
1678;DHT22;6034;46.864;15.216;2023-02-15T13:51:24;6.00;99.90
1678;DHT22;6034;46.864;15.216;2023-02-15T13:56:59;6.00;99.90
1678;DHT22;6034;46.864;15.216;2023-02-15T13:59:43;6.10;99.90
1678;DHT22;6034;46.864;15.216;2023-02-15T14:02:37;6.10;99.90
1678;DHT22;6034;46.864;15.216;2023-02-15T14:05:30;6.10;99.90
1678;DHT22;6034;46.864;15.216;2023-02-15T14:08:11;6.20;99.90
1678;DHT22;6034;46.864;15.216;2023-02-15T14:10:51;6.20;99.90
1678;DHT22;6034;46.864;15.216;2023-02-15T14:13:49;6.10;99.90
1678;DHT22;6034;46.864;15.216;2023-02-15T14:16:26;6.10;99.90
1678;DHT22;6034;46.864;15.216;2023-02-15T14:19:06;6.20;99.90
1678;DHT22;6034;46.864;15.216;2023-02-15T14:21:41;6.00;99.90
1678;DHT22;6034;46.864;15.216;2023-02-15T14:24:21;6.00;99.90
1678;DHT22;6034;46.864;15.216;2023-02-15T14:26:59;6.00;99.90
1678;DHT22;6034;46.864;15.216;2023-02-15T14:29:41;6.20;99.90
1678;DHT22;6034;46.864;15.216;2023-02-15T14:32:12;6.20;99.90
1678;DHT22;6034;46.864;15.216;2023-02-15T14:34:45;6.20;99.90
1678;DHT22;6034;46.864;15.216;2023-02-15T14:37:16;6.10;99.90
1678;DHT22;6034;46.864;15.216;2023-02-15T14:39:52;6.20;99.90
1678;DHT22;6034;46.864;15.216;2023-02-15T14:42:44;6.20;99.90
1678;DHT22;6034;46.864;15.216;2023-02-15T14:45:20;6.10;99.90
1678;DHT22;6034;46.864;15.216;2023-02-15T14:47:54;6.20;99.90
1678;DHT22;6034;46.864;15.216;2023-02-15T14:50:43;6.20;99.90
1678;DHT22;6034;46.864;15.216;2023-02-15T14:53:32;6.20;99.90
1678;DHT22;6034;46.864;15.216;2023-02-15T14:56:22;6.20;99.90
1678;DHT22;6034;46.864;15.216;2023-02-15T14:59:14;6.20;99.90
1678;DHT22;6034;46.864;15.216;2023-02-15T15:01:42;6.20;99.90
1678;DHT22;6034;46.864;15.216;2023-02-15T15:04:28;6.20;99.90
1678;DHT22;6034;46.864;15.216;2023-02-15T15:07:02;6.20;99.90
1678;DHT22;6034;46.864;15.216;2023-02-15T15:09:31;6.10;99.90
1678;DHT22;6034;46.864;15.216;2023-02-15T15:15:01;6.20;99.90
1678;DHT22;6034;46.864;15.216;2023-02-15T15:18:00;6.10;99.90
1678;DHT22;6034;46.864;15.216;2023-02-15T15:20:40;6.10;99.90
1678;DHT22;6034;46.864;15.216;2023-02-15T15:26:31;6.00;99.90
1678;DHT22;6034;46.864;15.216;2023-02-15T15:29:03;6.00;99.90
1678;DHT22;6034;46.864;15.216;2023-02-15T15:31:44;6.00;99.90
1678;DHT22;6034;46.864;15.216;2023-02-15T15:40:54;5.90;99.90
1678;DHT22;6034;46.864;15.216;2023-02-15T15:43:48;5.90;99.90
1678;DHT22;6034;46.864;15.216;2023-02-15T15:47:03;5.80;99.90
1678;DHT22;6034;46.864;15.216;2023-02-15T15:49:38;5.80;99.90
1678;DHT22;6034;46.864;15.216;2023-02-15T15:52:13;5.80;99.90
1678;DHT22;6034;46.864;15.216;2023-02-15T15:54:43;5.70;99.90
1678;DHT22;6034;46.864;15.216;2023-02-15T15:57:18;5.70;99.90
1678;DHT22;6034;46.864;15.216;2023-02-15T15:59:47;5.60;99.90
1678;DHT22;6034;46.864;15.216;2023-02-15T16:02:17;5.60;99.90
1678;DHT22;6034;46.864;15.216;2023-02-15T16:04:45;5.50;99.90
1678;DHT22;6034;46.864;15.216;2023-02-15T16:07:24;5.50;99.90
1678;DHT22;6034;46.864;15.216;2023-02-15T16:09:56;5.40;99.90
1678;DHT22;6034;46.864;15.216;2023-02-15T16:12:27;5.40;99.90
1678;DHT22;6034;46.864;15.216;2023-02-15T16:14:57;5.30;99.90
1678;DHT22;6034;46.864;15.216;2023-02-15T16:17:30;5.40;99.90
1678;DHT22;6034;46.864;15.216;2023-02-15T16:20:06;5.40;99.90
1678;DHT22;6034;46.864;15.216;2023-02-15T16:22:35;5.40;99.90
1678;DHT22;6034;46.864;15.216;2023-02-15T16:25:30;5.30;99.90
1678;DHT22;6034;46.864;15.216;2023-02-15T16:28:06;5.30;99.90
1678;DHT22;6034;46.864;15.216;2023-02-15T16:30:36;5.20;99.90
1678;DHT22;6034;46.864;15.216;2023-02-15T16:33:09;5.20;99.90
1678;DHT22;6034;46.864;15.216;2023-02-15T16:35:38;5.20;99.90
1678;DHT22;6034;46.864;15.216;2023-02-15T16:38:09;5.10;99.90
1678;DHT22;6034;46.864;15.216;2023-02-15T16:40:45;5.10;99.90
1678;DHT22;6034;46.864;15.216;2023-02-15T16:43:19;5.10;99.90
1678;DHT22;6034;46.864;15.216;2023-02-15T16:45:49;5.00;99.90
1678;DHT22;6034;46.864;15.216;2023-02-15T16:48:21;5.00;99.90
1678;DHT22;6034;46.864;15.216;2023-02-15T16:50:54;4.90;99.90
1678;DHT22;6034;46.864;15.216;2023-02-15T16:53:24;4.80;99.90
1678;DHT22;6034;46.864;15.216;2023-02-15T16:55:55;4.80;99.90
1678;DHT22;6034;46.864;15.216;2023-02-15T16:58:34;4.80;99.90
1678;DHT22;6034;46.864;15.216;2023-02-15T17:01:07;4.70;99.90
1678;DHT22;6034;46.864;15.216;2023-02-15T17:03:39;4.70;99.90
1678;DHT22;6034;46.864;15.216;2023-02-15T17:06:19;4.70;99.90
1678;DHT22;6034;46.864;15.216;2023-02-15T17:08:49;4.60;99.90
1678;DHT22;6034;46.864;15.216;2023-02-15T17:11:19;4.60;99.90
1678;DHT22;6034;46.864;15.216;2023-02-15T17:14:13;4.60;99.90
1678;DHT22;6034;46.864;15.216;2023-02-15T17:16:45;4.60;99.90
1678;DHT22;6034;46.864;15.216;2023-02-15T17:19:21;4.50;99.90
1678;DHT22;6034;46.864;15.216;2023-02-15T17:21:52;4.50;99.90
1678;DHT22;6034;46.864;15.216;2023-02-15T17:24:35;4.50;99.90
1678;DHT22;6034;46.864;15.216;2023-02-15T17:27:07;4.50;99.90
1678;DHT22;6034;46.864;15.216;2023-02-15T17:32:24;4.30;99.90
1678;DHT22;6034;46.864;15.216;2023-02-15T17:35:14;4.20;99.90
1678;DHT22;6034;46.864;15.216;2023-02-15T17:37:45;4.20;99.90
1678;DHT22;6034;46.864;15.216;2023-02-15T17:40:21;4.20;99.90
1678;DHT22;6034;46.864;15.216;2023-02-15T17:42:49;4.20;99.90
1678;DHT22;6034;46.864;15.216;2023-02-15T17:45:18;4.20;99.90
1678;DHT22;6034;46.864;15.216;2023-02-15T17:47:47;4.20;99.90
1678;DHT22;6034;46.864;15.216;2023-02-15T17:50:20;4.20;99.90
1678;DHT22;6034;46.864;15.216;2023-02-15T17:52:50;4.20;99.90
1678;DHT22;6034;46.864;15.216;2023-02-15T17:55:20;4.20;99.90
1678;DHT22;6034;46.864;15.216;2023-02-15T17:58:11;4.20;99.90
1678;DHT22;6034;46.864;15.216;2023-02-15T18:00:42;4.10;99.90
1678;DHT22;6034;46.864;15.216;2023-02-15T18:03:38;4.20;99.90
1678;DHT22;6034;46.864;15.216;2023-02-15T18:06:24;4.20;99.90
1678;DHT22;6034;46.864;15.216;2023-02-15T18:09:12;4.20;99.90
1678;DHT22;6034;46.864;15.216;2023-02-15T18:11:59;4.20;99.90
1678;DHT22;6034;46.864;15.216;2023-02-15T18:14:28;4.20;99.90
1678;DHT22;6034;46.864;15.216;2023-02-15T18:17:00;4.10;99.90
1678;DHT22;6034;46.864;15.216;2023-02-15T18:19:29;4.00;99.90
1678;DHT22;6034;46.864;15.216;2023-02-15T18:22:00;4.00;99.90
1678;DHT22;6034;46.864;15.216;2023-02-15T18:24:28;3.70;99.90
1678;DHT22;6034;46.864;15.216;2023-02-15T18:26:56;3.70;99.90
1678;DHT22;6034;46.864;15.216;2023-02-15T18:29:25;3.90;99.90
1678;DHT22;6034;46.864;15.216;2023-02-15T18:31:55;3.60;99.90
1678;DHT22;6034;46.864;15.216;2023-02-15T18:34:26;3.70;99.90
1678;DHT22;6034;46.864;15.216;2023-02-15T18:36:57;3.80;99.90
1678;DHT22;6034;46.864;15.216;2023-02-15T18:39:36;3.80;99.90
1678;DHT22;6034;46.864;15.216;2023-02-15T18:42:13;3.80;99.90
1678;DHT22;6034;46.864;15.216;2023-02-15T18:44:45;3.80;99.90
1678;DHT22;6034;46.864;15.216;2023-02-15T18:47:13;3.80;99.90
1678;DHT22;6034;46.864;15.216;2023-02-15T18:49:42;3.70;99.90
1678;DHT22;6034;46.864;15.216;2023-02-15T18:52:14;3.70;99.90
1678;DHT22;6034;46.864;15.216;2023-02-15T18:54:46;3.60;99.90
1678;DHT22;6034;46.864;15.216;2023-02-15T18:57:17;3.60;99.90
1678;DHT22;6034;46.864;15.216;2023-02-15T18:59:45;3.60;99.90
1678;DHT22;6034;46.864;15.216;2023-02-15T19:02:13;3.50;99.90
1678;DHT22;6034;46.864;15.216;2023-02-15T19:04:43;3.40;99.90
1678;DHT22;6034;46.864;15.216;2023-02-15T19:07:18;3.40;99.90
1678;DHT22;6034;46.864;15.216;2023-02-15T19:09:49;3.40;99.90
1678;DHT22;6034;46.864;15.216;2023-02-15T19:12:18;3.40;99.90
1678;DHT22;6034;46.864;15.216;2023-02-15T19:14:50;3.40;99.90
1678;DHT22;6034;46.864;15.216;2023-02-15T19:17:24;3.40;99.90
1678;DHT22;6034;46.864;15.216;2023-02-15T19:19:53;3.40;99.90
1678;DHT22;6034;46.864;15.216;2023-02-15T19:22:27;3.30;99.90
1678;DHT22;6034;46.864;15.216;2023-02-15T19:24:59;3.30;99.90
1678;DHT22;6034;46.864;15.216;2023-02-15T19:27:33;3.30;99.90
1678;DHT22;6034;46.864;15.216;2023-02-15T19:30:09;3.30;99.90
1678;DHT22;6034;46.864;15.216;2023-02-15T19:32:42;3.30;99.90
1678;DHT22;6034;46.864;15.216;2023-02-15T19:35:14;3.10;99.90
1678;DHT22;6034;46.864;15.216;2023-02-15T19:37:48;3.20;99.90
1678;DHT22;6034;46.864;15.216;2023-02-15T19:40:20;3.30;99.90
1678;DHT22;6034;46.864;15.216;2023-02-15T19:42:50;3.20;99.90
1678;DHT22;6034;46.864;15.216;2023-02-15T19:45:22;3.20;99.90
1678;DHT22;6034;46.864;15.216;2023-02-15T19:47:51;3.30;99.90
1678;DHT22;6034;46.864;15.216;2023-02-15T19:50:22;3.20;99.90
1678;DHT22;6034;46.864;15.216;2023-02-15T19:52:53;3.20;99.90
1678;DHT22;6034;46.864;15.216;2023-02-15T19:55:24;3.20;99.90
1678;DHT22;6034;46.864;15.216;2023-02-15T19:57:55;3.20;99.90
1678;DHT22;6034;46.864;15.216;2023-02-15T20:00:25;3.20;99.90
1678;DHT22;6034;46.864;15.216;2023-02-15T20:02:56;3.20;99.90
1678;DHT22;6034;46.864;15.216;2023-02-15T20:05:26;3.20;99.90
1678;DHT22;6034;46.864;15.216;2023-02-15T20:07:57;3.10;99.90
1678;DHT22;6034;46.864;15.216;2023-02-15T20:10:28;3.10;99.90
1678;DHT22;6034;46.864;15.216;2023-02-15T20:12:58;3.10;99.90
1678;DHT22;6034;46.864;15.216;2023-02-15T20:15:28;3.20;99.90
1678;DHT22;6034;46.864;15.216;2023-02-15T20:17:58;3.20;99.90
1678;DHT22;6034;46.864;15.216;2023-02-15T20:20:33;3.20;99.90
1678;DHT22;6034;46.864;15.216;2023-02-15T20:23:04;3.10;99.90
1678;DHT22;6034;46.864;15.216;2023-02-15T20:25:36;3.10;99.90
1678;DHT22;6034;46.864;15.216;2023-02-15T20:28:10;3.10;99.90
1678;DHT22;6034;46.864;15.216;2023-02-15T20:30:42;3.10;99.90
1678;DHT22;6034;46.864;15.216;2023-02-15T20:33:11;3.10;99.90
1678;DHT22;6034;46.864;15.216;2023-02-15T20:35:41;3.10;99.90
1678;DHT22;6034;46.864;15.216;2023-02-15T20:38:16;3.10;99.90
1678;DHT22;6034;46.864;15.216;2023-02-15T20:40:48;3.10;99.90
1678;DHT22;6034;46.864;15.216;2023-02-15T20:43:34;3.10;99.90
1678;DHT22;6034;46.864;15.216;2023-02-15T20:46:03;3.00;99.90
1678;DHT22;6034;46.864;15.216;2023-02-15T20:48:31;3.10;99.90
1678;DHT22;6034;46.864;15.216;2023-02-15T20:50:59;3.00;99.90
1678;DHT22;6034;46.864;15.216;2023-02-15T20:53:33;2.80;99.90
1678;DHT22;6034;46.864;15.216;2023-02-15T20:56:03;2.90;99.90
1678;DHT22;6034;46.864;15.216;2023-02-15T20:58:34;2.70;99.90
1678;DHT22;6034;46.864;15.216;2023-02-15T21:01:08;2.60;99.90
1678;DHT22;6034;46.864;15.216;2023-02-15T21:03:38;2.60;99.90
1678;DHT22;6034;46.864;15.216;2023-02-15T21:06:08;2.80;99.90
1678;DHT22;6034;46.864;15.216;2023-02-15T21:08:42;2.90;99.90
1678;DHT22;6034;46.864;15.216;2023-02-15T21:11:17;2.90;99.90
1678;DHT22;6034;46.864;15.216;2023-02-15T21:13:48;2.80;99.90
1678;DHT22;6034;46.864;15.216;2023-02-15T21:16:18;2.90;99.90
1678;DHT22;6034;46.864;15.216;2023-02-15T21:18:48;3.00;99.90
1678;DHT22;6034;46.864;15.216;2023-02-15T21:21:21;3.00;99.90
1678;DHT22;6034;46.864;15.216;2023-02-15T21:23:53;2.90;99.90
1678;DHT22;6034;46.864;15.216;2023-02-15T21:26:22;2.80;99.90
1678;DHT22;6034;46.864;15.216;2023-02-15T21:28:51;2.70;99.90
1678;DHT22;6034;46.864;15.216;2023-02-15T21:31:20;2.60;99.90
1678;DHT22;6034;46.864;15.216;2023-02-15T21:33:52;2.60;99.90
1678;DHT22;6034;46.864;15.216;2023-02-15T21:36:23;2.80;99.90
1678;DHT22;6034;46.864;15.216;2023-02-15T21:38:54;2.80;99.90
1678;DHT22;6034;46.864;15.216;2023-02-15T21:41:22;2.60;99.90
1678;DHT22;6034;46.864;15.216;2023-02-15T21:44:14;2.80;99.90
1678;DHT22;6034;46.864;15.216;2023-02-15T21:47:03;2.70;99.90
1678;DHT22;6034;46.864;15.216;2023-02-15T21:49:48;2.80;99.90
1678;DHT22;6034;46.864;15.216;2023-02-15T21:52:18;2.80;99.90
1678;DHT22;6034;46.864;15.216;2023-02-15T21:54:49;2.90;99.90
1678;DHT22;6034;46.864;15.216;2023-02-15T21:57:17;2.90;99.90
1678;DHT22;6034;46.864;15.216;2023-02-15T21:59:44;2.90;99.90
1678;DHT22;6034;46.864;15.216;2023-02-15T22:02:26;2.90;99.90
1678;DHT22;6034;46.864;15.216;2023-02-15T22:04:54;2.90;99.90
1678;DHT22;6034;46.864;15.216;2023-02-15T22:07:22;2.90;99.90
1678;DHT22;6034;46.864;15.216;2023-02-15T22:09:51;2.80;99.90
1678;DHT22;6034;46.864;15.216;2023-02-15T22:12:20;2.80;99.90
1678;DHT22;6034;46.864;15.216;2023-02-15T22:14:51;2.70;99.90
1678;DHT22;6034;46.864;15.216;2023-02-15T22:17:21;2.80;99.90
1678;DHT22;6034;46.864;15.216;2023-02-15T22:19:50;2.90;99.90
1678;DHT22;6034;46.864;15.216;2023-02-15T22:22:18;2.80;99.90
1678;DHT22;6034;46.864;15.216;2023-02-15T22:24:45;2.70;99.90
1678;DHT22;6034;46.864;15.216;2023-02-15T22:27:19;2.70;99.90
1678;DHT22;6034;46.864;15.216;2023-02-15T22:29:47;2.80;99.90
1678;DHT22;6034;46.864;15.216;2023-02-15T22:32:16;2.80;99.90
1678;DHT22;6034;46.864;15.216;2023-02-15T22:34:44;2.80;99.90
1678;DHT22;6034;46.864;15.216;2023-02-15T22:37:12;2.60;99.90
1678;DHT22;6034;46.864;15.216;2023-02-15T22:39:39;2.70;99.90
1678;DHT22;6034;46.864;15.216;2023-02-15T22:42:20;2.80;99.90
1678;DHT22;6034;46.864;15.216;2023-02-15T22:44:49;2.80;99.90
1678;DHT22;6034;46.864;15.216;2023-02-15T22:47:20;2.50;99.90
1678;DHT22;6034;46.864;15.216;2023-02-15T22:49:48;2.50;99.90
1678;DHT22;6034;46.864;15.216;2023-02-15T22:52:16;2.70;99.90
1678;DHT22;6034;46.864;15.216;2023-02-15T22:54:44;2.80;99.90
1678;DHT22;6034;46.864;15.216;2023-02-15T22:57:17;2.70;99.90
1678;DHT22;6034;46.864;15.216;2023-02-15T22:59:47;2.80;99.90
